createdAt,value
2022-08-30T00:00:15.504Z,99.90
2022-08-30T00:02:17.638Z,99.90
2022-08-30T00:04:19.602Z,99.90
2022-08-30T00:06:22.988Z,99.90
2022-08-30T00:08:25.089Z,99.90
2022-08-30T00:10:28.970Z,99.90
2022-08-30T00:12:31.808Z,99.90
2022-08-30T00:14:33.709Z,99.90
2022-08-30T00:16:35.605Z,99.90
2022-08-30T00:18:38.287Z,99.90
2022-08-30T00:20:40.259Z,99.90
2022-08-30T00:22:42.555Z,99.90
2022-08-30T00:24:44.564Z,99.90
2022-08-30T00:26:46.489Z,99.90
2022-08-30T00:28:48.400Z,99.90
2022-08-30T00:30:50.775Z,99.90
2022-08-30T00:32:54.099Z,99.90
2022-08-30T00:34:56.508Z,99.90
2022-08-30T00:36:59.330Z,99.90
2022-08-30T00:39:01.281Z,99.90
2022-08-30T00:41:03.271Z,99.90
2022-08-30T00:43:10.044Z,99.90
2022-08-30T00:45:24.396Z,99.90
2022-08-30T00:47:26.836Z,99.90
2022-08-30T00:49:30.845Z,99.90
2022-08-30T00:51:33.565Z,99.90
2022-08-30T00:53:40.192Z,99.90
2022-08-30T00:55:44.369Z,99.90
2022-08-30T00:57:47.996Z,99.90
2022-08-30T00:59:50.478Z,99.90
2022-08-30T01:01:52.901Z,99.90
2022-08-30T01:03:55.392Z,99.90
2022-08-30T01:05:59.078Z,99.90
2022-08-30T01:08:01.035Z,99.90
2022-08-30T01:10:04.075Z,99.90
2022-08-30T01:12:06.533Z,99.90
2022-08-30T01:14:10.372Z,99.90
2022-08-30T01:16:12.714Z,99.90
2022-08-30T01:18:17.492Z,99.90
2022-08-30T01:20:38.441Z,99.90
2022-08-30T01:23:06.597Z,99.90
2022-08-30T01:25:10.111Z,99.90
2022-08-30T01:27:12.086Z,99.90
2022-08-30T01:29:20.929Z,99.90
2022-08-30T01:31:23.297Z,99.90
2022-08-30T01:33:25.741Z,99.90
2022-08-30T01:35:29.010Z,99.90
2022-08-30T01:37:33.994Z,99.90
2022-08-30T01:39:35.915Z,99.90
2022-08-30T01:41:37.857Z,99.90
2022-08-30T01:43:40.171Z,99.90
2022-08-30T01:45:42.412Z,99.90
2022-08-30T01:47:44.397Z,99.90
2022-08-30T01:49:48.040Z,99.90
2022-08-30T01:51:49.999Z,99.90
2022-08-30T01:54:02.453Z,99.90
2022-08-30T01:56:05.701Z,99.90
2022-08-30T01:58:07.711Z,99.90
2022-08-30T02:00:10.802Z,99.90
2022-08-30T02:02:12.880Z,99.90
2022-08-30T02:04:14.906Z,99.90
2022-08-30T02:06:19.442Z,99.90
2022-08-30T02:08:21.420Z,99.90
2022-08-30T02:10:23.797Z,99.90
2022-08-30T02:12:26.062Z,99.90
2022-08-30T02:14:28.067Z,99.90
2022-08-30T02:16:29.990Z,99.90
2022-08-30T02:18:33.870Z,99.90
2022-08-30T02:20:37.555Z,99.90
2022-08-30T02:22:39.589Z,99.90
2022-08-30T02:24:50.048Z,99.90
2022-08-30T02:26:53.332Z,99.90
2022-08-30T02:28:55.422Z,99.90
2022-08-30T02:30:57.694Z,99.90
2022-08-30T02:33:00.030Z,99.90
2022-08-30T02:35:02.230Z,99.90
2022-08-30T02:37:05.046Z,99.90
2022-08-30T02:39:08.207Z,99.90
2022-08-30T02:41:10.103Z,99.90
2022-08-30T02:43:12.233Z,99.90
2022-08-30T02:45:15.330Z,99.90
2022-08-30T02:47:19.221Z,99.90
2022-08-30T02:49:33.047Z,99.90
2022-08-30T02:51:36.081Z,99.90
2022-08-30T02:53:39.344Z,99.90
2022-08-30T02:55:41.849Z,99.90
2022-08-30T02:57:46.019Z,99.90
2022-08-30T02:59:48.145Z,99.90
2022-08-30T03:01:50.267Z,99.90
2022-08-30T03:03:52.345Z,99.90
2022-08-30T03:05:54.352Z,99.90
2022-08-30T03:07:56.496Z,99.90
2022-08-30T03:09:58.482Z,99.90
2022-08-30T03:12:00.766Z,99.90
2022-08-30T03:14:02.672Z,99.90
2022-08-30T03:16:05.843Z,99.90
2022-08-30T03:18:08.411Z,99.90
2022-08-30T03:20:12.195Z,99.90
2022-08-30T03:22:14.189Z,99.90
2022-08-30T03:24:19.281Z,99.90
2022-08-30T03:26:21.311Z,99.90
2022-08-30T03:28:23.271Z,99.90
2022-08-30T03:30:25.519Z,99.90
2022-08-30T03:32:28.277Z,99.90
2022-08-30T03:34:30.188Z,99.90
2022-08-30T03:36:33.109Z,99.90
2022-08-30T03:38:35.446Z,99.90
2022-08-30T03:40:37.438Z,99.90
2022-08-30T03:42:41.422Z,99.90
2022-08-30T03:44:45.477Z,99.90
2022-08-30T03:46:47.963Z,99.90
2022-08-30T03:48:50.001Z,99.90
2022-08-30T03:50:52.379Z,99.90
2022-08-30T03:52:54.276Z,99.90
2022-08-30T03:54:56.304Z,99.90
2022-08-30T03:56:58.733Z,99.90
2022-08-30T03:59:01.640Z,99.90
2022-08-30T04:01:03.784Z,99.90
2022-08-30T04:03:05.977Z,99.90
2022-08-30T04:05:11.961Z,99.90
2022-08-30T04:07:16.024Z,99.90
2022-08-30T04:09:18.810Z,99.90
2022-08-30T04:11:21.364Z,99.90
2022-08-30T04:13:24.641Z,99.90
2022-08-30T04:15:26.648Z,99.90
2022-08-30T04:17:28.621Z,99.90
2022-08-30T04:19:30.671Z,99.90
2022-08-30T04:21:32.610Z,99.90
2022-08-30T04:23:36.933Z,99.90
2022-08-30T04:25:41.418Z,99.90
2022-08-30T04:27:45.375Z,99.90
2022-08-30T04:29:47.835Z,99.90
2022-08-30T04:31:49.827Z,99.90
2022-08-30T04:33:51.783Z,99.90
2022-08-30T04:35:53.718Z,99.90
2022-08-30T04:37:56.001Z,99.90
2022-08-30T04:40:00.762Z,99.90
2022-08-30T04:42:03.483Z,99.90
2022-08-30T04:44:05.375Z,99.90
2022-08-30T04:46:08.716Z,99.90
2022-08-30T04:48:10.760Z,99.90
2022-08-30T04:50:16.746Z,99.90
2022-08-30T04:52:19.242Z,99.90
2022-08-30T04:54:21.332Z,99.90
2022-08-30T04:56:25.243Z,99.90
2022-08-30T04:58:27.359Z,99.90
2022-08-30T05:00:30.103Z,99.90
2022-08-30T05:02:32.310Z,99.90
2022-08-30T05:04:34.399Z,99.90
2022-08-30T05:06:36.448Z,99.90
2022-08-30T05:08:38.771Z,99.90
2022-08-30T05:10:43.385Z,99.90
2022-08-30T05:12:45.311Z,99.90
2022-08-30T05:14:47.250Z,99.90
2022-08-30T05:16:49.332Z,99.90
2022-08-30T05:18:52.599Z,99.90
2022-08-30T05:21:16.447Z,99.90
2022-08-30T05:23:18.479Z,99.90
2022-08-30T05:25:28.124Z,99.90
2022-08-30T05:27:29.995Z,99.90
2022-08-30T05:29:32.208Z,99.90
2022-08-30T05:31:36.278Z,99.90
2022-08-30T05:33:38.893Z,99.90
2022-08-30T05:35:41.065Z,99.90
2022-08-30T05:37:43.693Z,99.90
2022-08-30T05:39:51.242Z,99.90
2022-08-30T05:41:59.330Z,99.90
2022-08-30T05:44:03.175Z,99.90
2022-08-30T05:46:08.419Z,99.90
2022-08-30T05:48:10.502Z,99.90
2022-08-30T05:50:15.659Z,99.90
2022-08-30T05:52:18.339Z,99.90
2022-08-30T05:54:20.241Z,99.90
2022-08-30T05:56:25.912Z,99.90
2022-08-30T05:58:28.433Z,99.90
2022-08-30T06:00:32.101Z,99.90
2022-08-30T06:02:34.142Z,99.90
2022-08-30T06:04:36.909Z,99.90
2022-08-30T06:06:41.046Z,99.90
2022-08-30T06:08:45.653Z,99.90
2022-08-30T06:10:47.752Z,99.90
2022-08-30T06:12:51.938Z,99.90
2022-08-30T06:14:53.796Z,99.90
2022-08-30T06:16:58.756Z,99.90
2022-08-30T06:19:01.472Z,99.90
2022-08-30T06:21:03.479Z,99.90
2022-08-30T06:23:05.352Z,99.90
2022-08-30T06:25:08.069Z,99.90
2022-08-30T06:27:11.154Z,99.90
2022-08-30T06:29:15.632Z,99.90
2022-08-30T06:31:19.227Z,99.90
2022-08-30T06:33:21.210Z,99.90
2022-08-30T06:35:23.098Z,99.90
2022-08-30T06:37:30.075Z,99.90
2022-08-30T06:39:32.210Z,99.90
2022-08-30T06:41:36.497Z,99.90
2022-08-30T06:43:38.462Z,99.90
2022-08-30T06:45:40.394Z,99.90
2022-08-30T06:47:42.645Z,99.90
2022-08-30T06:49:46.908Z,99.90
2022-08-30T06:51:48.799Z,99.90
2022-08-30T06:53:51.809Z,99.90
2022-08-30T06:55:57.724Z,99.90
2022-08-30T06:58:01.050Z,99.90
2022-08-30T07:00:06.527Z,99.90
2022-08-30T07:02:09.272Z,99.90
2022-08-30T07:04:11.250Z,99.90
2022-08-30T07:06:13.703Z,99.90
2022-08-30T07:08:16.754Z,99.90
2022-08-30T07:10:19.180Z,99.90
2022-08-30T07:12:21.136Z,99.90
2022-08-30T07:14:23.559Z,99.90
2022-08-30T07:16:25.978Z,99.90
2022-08-30T07:18:46.696Z,99.90
2022-08-30T07:20:48.640Z,99.90
2022-08-30T07:22:50.630Z,99.90
2022-08-30T07:24:52.755Z,99.90
2022-08-30T07:26:54.776Z,99.90
2022-08-30T07:28:57.347Z,99.90
2022-08-30T07:30:59.505Z,99.50
2022-08-30T07:33:01.851Z,99.10
2022-08-30T07:35:04.424Z,98.50
2022-08-30T07:37:06.358Z,97.60
2022-08-30T07:39:09.879Z,97.50
2022-08-30T07:41:17.846Z,97.10
2022-08-30T07:43:19.860Z,96.40
2022-08-30T07:45:21.831Z,96.20
2022-08-30T07:47:23.854Z,95.80
2022-08-30T07:49:26.253Z,95.40
2022-08-30T07:51:28.881Z,95.30
2022-08-30T07:53:31.728Z,95.00
2022-08-30T07:55:33.674Z,94.40
2022-08-30T07:57:35.566Z,94.30
2022-08-30T07:59:37.463Z,93.80
2022-08-30T08:01:39.561Z,93.50
2022-08-30T08:03:44.265Z,93.30
2022-08-30T08:05:46.731Z,92.70
2022-08-30T08:07:48.764Z,92.50
2022-08-30T08:09:50.807Z,92.40
2022-08-30T08:11:52.996Z,91.90
2022-08-30T08:13:55.667Z,91.60
2022-08-30T08:15:57.803Z,91.20
2022-08-30T08:18:01.212Z,90.90
2022-08-30T08:20:04.319Z,90.90
2022-08-30T08:22:22.031Z,90.70
2022-08-30T08:24:24.523Z,90.50
2022-08-30T08:26:27.048Z,90.50
2022-08-30T08:28:29.100Z,90.00
2022-08-30T08:30:34.479Z,89.70
2022-08-30T08:32:36.389Z,87.80
2022-08-30T08:34:38.426Z,87.60
2022-08-30T08:36:41.257Z,85.90
2022-08-30T08:38:43.178Z,86.50
2022-08-30T08:41:05.546Z,86.50
2022-08-30T08:43:17.197Z,87.80
2022-08-30T08:45:34.902Z,85.20
2022-08-30T08:47:54.133Z,84.50
2022-08-30T08:50:04.812Z,84.00
2022-08-30T08:52:31.734Z,82.90
2022-08-30T08:54:46.851Z,84.80
2022-08-30T08:56:48.833Z,84.40
2022-08-30T08:58:56.330Z,83.80
2022-08-30T09:00:59.145Z,84.20
2022-08-30T09:03:03.186Z,84.60
2022-08-30T09:05:06.598Z,84.90
2022-08-30T09:07:23.246Z,85.00
2022-08-30T09:09:34.026Z,84.90
2022-08-30T09:11:38.129Z,84.10
2022-08-30T09:13:40.105Z,84.90
2022-08-30T09:15:43.057Z,85.40
2022-08-30T09:17:54.162Z,86.50
2022-08-30T09:19:56.096Z,85.80
2022-08-30T09:22:01.061Z,86.00
2022-08-30T09:24:04.983Z,85.00
2022-08-30T09:26:09.335Z,83.60
2022-08-30T09:28:14.564Z,82.10
2022-08-30T09:30:21.216Z,81.10
2022-08-30T09:32:32.191Z,79.40
2022-08-30T09:34:34.250Z,79.10
2022-08-30T09:36:45.055Z,78.20
2022-08-30T09:38:56.390Z,76.90
2022-08-30T09:41:02.450Z,76.10
2022-08-30T09:43:11.998Z,76.00
2022-08-30T09:45:36.095Z,75.20
2022-08-30T09:47:43.213Z,71.30
2022-08-30T09:49:45.579Z,73.10
2022-08-30T09:52:19.264Z,73.40
2022-08-30T09:54:35.813Z,71.20
2022-08-30T09:57:05.529Z,70.20
2022-08-30T09:59:32.978Z,65.40
2022-08-30T10:01:46.497Z,67.00
2022-08-30T10:04:27.134Z,65.90
2022-08-30T10:06:40.498Z,68.60
2022-08-30T10:08:51.349Z,66.70
2022-08-30T10:11:05.543Z,64.80
2022-08-30T10:13:16.022Z,63.60
2022-08-30T10:15:31.729Z,61.90
2022-08-30T10:18:07.505Z,62.40
2022-08-30T10:20:17.133Z,66.40
2022-08-30T10:22:40.406Z,68.40
2022-08-30T10:24:48.180Z,68.50
2022-08-30T10:26:59.968Z,69.70
2022-08-30T10:29:13.232Z,69.60
2022-08-30T10:31:29.170Z,67.70
2022-08-30T10:33:39.454Z,68.00
2022-08-30T10:35:55.225Z,65.10
2022-08-30T10:38:08.512Z,58.10
2022-08-30T10:40:52.854Z,61.20
2022-08-30T10:42:58.526Z,58.90
2022-08-30T10:45:15.755Z,60.70
2022-08-30T10:47:32.241Z,59.70
2022-08-30T10:49:47.023Z,58.40
2022-08-30T10:52:00.462Z,56.50
2022-08-30T10:54:09.159Z,54.70
2022-08-30T10:56:20.694Z,58.30
2022-08-30T10:58:23.624Z,57.70
2022-08-30T11:00:38.487Z,57.10
2022-08-30T11:02:43.113Z,56.50
2022-08-30T11:05:03.053Z,56.70
2022-08-30T11:07:37.834Z,56.60
2022-08-30T11:10:04.944Z,55.70
2022-08-30T11:12:44.150Z,54.90
2022-08-30T11:14:46.598Z,56.20
2022-08-30T11:16:51.726Z,56.10
2022-08-30T11:18:56.759Z,55.70
2022-08-30T11:21:40.434Z,55.40
2022-08-30T11:23:56.965Z,52.50
2022-08-30T11:26:03.570Z,54.20
2022-08-30T11:28:06.422Z,52.30
2022-08-30T11:30:26.916Z,51.00
2022-08-30T11:33:05.426Z,52.50
2022-08-30T11:35:52.467Z,53.00
2022-08-30T11:37:54.399Z,51.00
2022-08-30T11:40:03.776Z,52.60
2022-08-30T11:42:32.025Z,49.80
2022-08-30T11:44:34.123Z,49.50
2022-08-30T11:46:40.132Z,51.50
2022-08-30T11:48:55.251Z,50.10
2022-08-30T11:51:07.192Z,50.70
2022-08-30T11:53:23.331Z,49.70
2022-08-30T11:55:42.071Z,50.90
2022-08-30T11:57:52.897Z,51.10
2022-08-30T12:00:04.275Z,50.60
2022-08-30T12:02:08.234Z,49.40
2022-08-30T12:04:27.812Z,48.40
2022-08-30T12:06:42.124Z,47.80
2022-08-30T12:08:55.124Z,48.30
2022-08-30T12:11:02.895Z,49.00
2022-08-30T12:13:06.582Z,50.60
2022-08-30T12:15:27.221Z,51.00
2022-08-30T12:18:07.822Z,49.80
2022-08-30T12:20:27.135Z,50.20
2022-08-30T12:22:30.657Z,51.50
2022-08-30T12:24:36.904Z,51.50
2022-08-30T12:26:41.924Z,50.10
2022-08-30T12:28:48.961Z,51.30
2022-08-30T12:30:53.231Z,51.20
2022-08-30T12:32:55.466Z,49.50
2022-08-30T12:35:03.313Z,50.10
2022-08-30T12:37:10.869Z,50.40
2022-08-30T12:39:14.293Z,50.50
2022-08-30T12:41:22.661Z,50.20
2022-08-30T12:43:49.808Z,50.50
2022-08-30T12:45:53.330Z,48.50
2022-08-30T12:48:11.663Z,48.00
2022-08-30T12:50:27.845Z,48.90
2022-08-30T12:52:37.280Z,50.60
2022-08-30T12:54:40.463Z,51.00
2022-08-30T12:56:57.928Z,51.00
2022-08-30T12:59:05.849Z,50.50
2022-08-30T13:01:19.842Z,50.50
2022-08-30T13:03:35.122Z,49.40
2022-08-30T13:05:40.508Z,49.80
2022-08-30T13:07:47.242Z,51.30
2022-08-30T13:09:50.248Z,50.80
2022-08-30T13:11:52.945Z,50.60
2022-08-30T13:13:58.466Z,50.90
2022-08-30T13:16:17.734Z,51.40
2022-08-30T13:18:32.173Z,53.70
2022-08-30T13:20:34.179Z,51.10
2022-08-30T13:22:41.526Z,50.80
2022-08-30T13:24:44.000Z,50.60
2022-08-30T13:26:46.002Z,51.00
2022-08-30T13:29:00.125Z,51.00
2022-08-30T13:31:02.058Z,51.20
2022-08-30T13:33:06.509Z,51.20
2022-08-30T13:35:09.440Z,51.60
2022-08-30T13:39:40.904Z,50.00
2022-08-30T13:41:44.105Z,50.00
2022-08-30T13:46:09.266Z,49.70
2022-08-30T13:48:15.460Z,49.70
2022-08-30T13:50:20.837Z,50.00
2022-08-30T13:52:24.579Z,50.00
2022-08-30T13:54:27.996Z,50.40
2022-08-30T13:56:32.173Z,50.90
2022-08-30T13:58:34.130Z,51.20
2022-08-30T14:00:37.447Z,50.90
2022-08-30T14:02:45.103Z,51.30
2022-08-30T14:04:49.720Z,52.90
2022-08-30T14:09:14.683Z,52.90
2022-08-30T14:11:21.199Z,53.30
2022-08-30T14:13:28.893Z,52.90
2022-08-30T14:15:32.460Z,52.90
2022-08-30T14:17:35.643Z,53.20
2022-08-30T14:19:37.710Z,54.30
2022-08-30T14:21:39.729Z,55.10
2022-08-30T14:23:41.845Z,56.60
2022-08-30T14:25:43.920Z,55.90
2022-08-30T14:27:45.872Z,55.40
2022-08-30T14:29:49.091Z,55.20
2022-08-30T14:31:51.119Z,55.50
2022-08-30T14:33:53.153Z,55.50
2022-08-30T14:35:55.127Z,55.10
2022-08-30T14:37:57.486Z,55.10
2022-08-30T14:40:00.871Z,55.20
2022-08-30T14:42:07.638Z,53.80
2022-08-30T14:44:13.285Z,54.20
2022-08-30T14:46:15.351Z,53.90
2022-08-30T14:48:18.368Z,54.40
2022-08-30T14:50:21.726Z,54.90
2022-08-30T14:52:23.948Z,55.20
2022-08-30T14:54:28.155Z,55.30
2022-08-30T14:56:30.130Z,55.70
2022-08-30T14:58:32.046Z,55.90
2022-08-30T15:00:34.037Z,55.60
2022-08-30T15:02:37.765Z,55.40
2022-08-30T15:04:39.672Z,52.60
2022-08-30T15:06:44.210Z,55.70
2022-08-30T15:08:47.926Z,56.90
2022-08-30T15:10:50.410Z,57.10
2022-08-30T15:12:54.001Z,56.70
2022-08-30T15:14:56.916Z,55.60
2022-08-30T15:17:00.258Z,55.40
2022-08-30T15:19:03.758Z,55.50
2022-08-30T15:21:06.060Z,56.10
2022-08-30T15:23:08.312Z,57.20
2022-08-30T15:25:10.304Z,58.10
2022-08-30T15:27:12.399Z,59.40
2022-08-30T15:29:17.549Z,60.80
2022-08-30T15:31:21.430Z,61.50
2022-08-30T15:33:25.083Z,62.50
2022-08-30T15:35:27.025Z,63.30
2022-08-30T15:37:28.940Z,62.50
2022-08-30T15:39:32.567Z,63.00
2022-08-30T15:41:36.098Z,64.00
2022-08-30T15:43:41.179Z,65.10
2022-08-30T15:45:43.460Z,67.00
2022-08-30T15:47:45.347Z,67.80
2022-08-30T15:49:55.523Z,68.90
2022-08-30T15:52:01.757Z,70.30
2022-08-30T15:54:05.048Z,71.80
2022-08-30T15:56:07.139Z,72.90
2022-08-30T15:58:09.733Z,73.50
2022-08-30T16:00:13.154Z,74.20
2022-08-30T16:02:15.356Z,74.90
2022-08-30T16:04:18.814Z,75.00
2022-08-30T16:06:28.249Z,75.60
2022-08-30T16:08:30.163Z,76.50
2022-08-30T16:10:32.449Z,77.50
2022-08-30T16:12:35.345Z,78.70
2022-08-30T16:14:38.114Z,78.80
2022-08-30T16:16:41.886Z,79.90
2022-08-30T16:18:44.033Z,80.50
2022-08-30T16:20:46.367Z,81.30
2022-08-30T16:22:48.372Z,81.40
2022-08-30T16:24:50.310Z,81.70
2022-08-30T16:26:52.814Z,82.00
2022-08-30T16:28:55.674Z,82.50
2022-08-30T16:30:58.303Z,82.80
2022-08-30T16:33:00.294Z,82.70
2022-08-30T16:35:02.351Z,82.80
2022-08-30T16:37:04.423Z,82.20
2022-08-30T16:39:08.838Z,82.00
2022-08-30T16:41:18.966Z,82.10
2022-08-30T16:43:24.162Z,82.30
2022-08-30T16:45:29.658Z,81.50
2022-08-30T16:47:34.897Z,80.90
2022-08-30T16:49:39.636Z,80.70
2022-08-30T16:51:41.605Z,80.90
2022-08-30T16:53:44.568Z,81.30
2022-08-30T16:55:47.541Z,81.90
2022-08-30T16:57:49.506Z,82.50
2022-08-30T16:59:52.627Z,82.40
2022-08-30T17:01:54.738Z,80.80
2022-08-30T17:03:57.136Z,79.60
2022-08-30T17:05:59.255Z,78.00
2022-08-30T17:08:01.410Z,78.00
2022-08-30T17:10:05.818Z,78.10
2022-08-30T17:12:10.829Z,77.30
2022-08-30T17:14:13.110Z,76.80
2022-08-30T17:16:17.703Z,76.40
2022-08-30T17:18:40.176Z,75.90
2022-08-30T17:20:44.858Z,74.20
2022-08-30T17:22:46.922Z,71.80
2022-08-30T17:24:48.924Z,69.40
2022-08-30T17:26:51.193Z,69.00
2022-08-30T17:28:53.271Z,69.70
2022-08-30T17:30:55.458Z,71.10
2022-08-30T17:32:58.102Z,72.50
2022-08-30T17:35:00.629Z,73.50
2022-08-30T17:37:02.783Z,74.00
2022-08-30T17:39:10.849Z,74.60
2022-08-30T17:41:15.963Z,75.40
2022-08-30T17:43:17.952Z,75.80
2022-08-30T17:45:20.239Z,76.20
2022-08-30T17:47:22.245Z,76.70
2022-08-30T17:49:27.448Z,76.80
2022-08-30T17:51:31.124Z,76.60
2022-08-30T17:53:33.218Z,76.70
2022-08-30T17:55:35.701Z,77.00
2022-08-30T17:57:41.843Z,77.40
2022-08-30T17:59:45.372Z,77.60
2022-08-30T18:01:47.611Z,77.90
2022-08-30T18:03:57.132Z,78.00
2022-08-30T18:06:04.962Z,78.10
2022-08-30T18:08:07.545Z,78.60
2022-08-30T18:10:10.258Z,78.80
2022-08-30T18:12:12.701Z,79.10
2022-08-30T18:14:16.613Z,79.10
2022-08-30T18:16:21.604Z,79.20
2022-08-30T18:18:28.158Z,79.70
2022-08-30T18:20:32.023Z,80.00
2022-08-30T18:22:33.963Z,80.60
2022-08-30T18:24:36.164Z,81.00
2022-08-30T18:26:38.231Z,81.50
2022-08-30T18:28:45.493Z,81.80
2022-08-30T18:30:47.872Z,82.40
2022-08-30T18:32:49.815Z,82.80
2022-08-30T18:34:52.098Z,83.10
2022-08-30T18:36:54.466Z,83.60
2022-08-30T18:38:56.670Z,84.20
2022-08-30T18:41:02.943Z,84.40
2022-08-30T18:43:07.999Z,84.60
2022-08-30T18:45:14.654Z,85.00
2022-08-30T18:47:17.413Z,85.30
2022-08-30T18:49:26.608Z,85.50
2022-08-30T18:51:29.404Z,86.00
2022-08-30T18:53:31.318Z,86.30
2022-08-30T18:55:33.407Z,86.60
2022-08-30T18:57:35.602Z,86.90
2022-08-30T18:59:39.056Z,87.30
2022-08-30T19:01:44.330Z,87.40
2022-08-30T19:03:46.329Z,87.60
2022-08-30T19:05:49.561Z,87.80
2022-08-30T19:07:55.049Z,88.10
2022-08-30T19:09:59.033Z,89.20
2022-08-30T19:12:01.155Z,88.60
2022-08-30T19:14:03.905Z,88.50
2022-08-30T19:16:06.870Z,88.30
2022-08-30T19:18:17.190Z,88.40
2022-08-30T19:20:22.454Z,88.60
2022-08-30T19:22:27.430Z,88.40
2022-08-30T19:24:30.566Z,88.40
2022-08-30T19:26:38.422Z,88.50
2022-08-30T19:28:41.376Z,88.60
2022-08-30T19:30:43.633Z,88.70
2022-08-30T19:32:45.701Z,88.70
2022-08-30T19:34:49.460Z,88.80
2022-08-30T19:36:52.339Z,88.80
2022-08-30T19:38:56.016Z,89.00
2022-08-30T19:41:01.463Z,89.20
2022-08-30T19:43:05.345Z,89.30
2022-08-30T19:45:09.062Z,89.40
2022-08-30T19:47:11.112Z,89.50
2022-08-30T19:49:13.329Z,89.60
2022-08-30T19:51:15.568Z,89.60
2022-08-30T19:53:19.278Z,89.80
2022-08-30T19:55:28.613Z,89.80
2022-08-30T19:57:35.041Z,90.00
2022-08-30T19:59:38.138Z,89.90
2022-08-30T20:01:40.304Z,90.10
2022-08-30T20:03:42.439Z,89.90
2022-08-30T20:05:44.510Z,90.00
2022-08-30T20:07:46.461Z,90.10
2022-08-30T20:09:53.237Z,90.10
2022-08-30T20:11:58.977Z,90.10
2022-08-30T20:14:01.433Z,90.30
2022-08-30T20:16:05.053Z,90.10
2022-08-30T20:18:13.351Z,90.20
2022-08-30T20:20:20.791Z,90.20
2022-08-30T20:22:24.702Z,90.20
2022-08-30T20:24:28.826Z,90.10
2022-08-30T20:26:34.457Z,90.00
2022-08-30T20:28:40.788Z,89.80
2022-08-30T20:30:44.513Z,89.50
2022-08-30T20:32:46.978Z,89.30
2022-08-30T20:34:48.883Z,89.30
2022-08-30T20:36:52.107Z,89.20
2022-08-30T20:38:58.793Z,89.10
2022-08-30T20:41:02.728Z,88.90
2022-08-30T20:43:06.171Z,88.90
2022-08-30T20:45:08.608Z,88.70
2022-08-30T20:47:11.751Z,88.60
2022-08-30T20:49:14.296Z,88.40
2022-08-30T20:51:18.893Z,88.20
2022-08-30T20:53:20.822Z,88.00
2022-08-30T20:55:23.048Z,87.80
2022-08-30T20:57:25.058Z,87.70
2022-08-30T20:59:27.891Z,87.50
2022-08-30T21:01:33.375Z,87.10
2022-08-30T21:03:35.821Z,86.80
2022-08-30T21:05:37.787Z,86.70
2022-08-30T21:07:40.036Z,86.20
2022-08-30T21:09:42.986Z,86.30
2022-08-30T21:11:45.351Z,86.30
2022-08-30T21:13:48.547Z,86.20
2022-08-30T21:15:54.769Z,86.10
2022-08-30T21:17:56.875Z,85.90
2022-08-30T21:19:58.931Z,85.80
2022-08-30T21:22:03.830Z,85.60
2022-08-30T21:24:09.586Z,85.60
2022-08-30T21:26:11.656Z,85.30
2022-08-30T21:28:13.616Z,85.20
2022-08-30T21:30:16.105Z,85.30
2022-08-30T21:32:18.052Z,85.40
2022-08-30T21:34:20.313Z,85.40
2022-08-30T21:36:42.741Z,85.30
2022-08-30T21:38:44.758Z,85.20
2022-08-30T21:40:48.369Z,85.40
2022-08-30T21:42:50.497Z,85.10
2022-08-30T21:44:52.524Z,85.20
2022-08-30T21:46:54.970Z,85.20
2022-08-30T21:49:01.346Z,85.30
2022-08-30T21:51:07.740Z,85.10
2022-08-30T21:53:10.409Z,84.90
2022-08-30T21:55:12.445Z,84.90
2022-08-30T21:57:17.443Z,85.00
2022-08-30T21:59:21.358Z,84.80
2022-08-30T22:01:26.525Z,84.80
2022-08-30T22:03:28.865Z,85.00
2022-08-30T22:05:30.902Z,85.00
2022-08-30T22:07:37.298Z,85.00
2022-08-30T22:09:39.530Z,85.10
2022-08-30T22:11:43.495Z,85.00
2022-08-30T22:13:48.043Z,85.10
2022-08-30T22:15:50.051Z,85.20
2022-08-30T22:17:52.498Z,85.30
2022-08-30T22:19:54.666Z,85.40
2022-08-30T22:22:01.198Z,85.50
2022-08-30T22:24:07.853Z,85.70
2022-08-30T22:26:10.800Z,85.70
2022-08-30T22:28:15.159Z,85.90
2022-08-30T22:30:17.913Z,86.20
2022-08-30T22:32:19.870Z,86.70
2022-08-30T22:34:22.505Z,86.80
2022-08-30T22:36:32.344Z,87.10
2022-08-30T22:38:34.833Z,87.40
2022-08-30T22:40:36.939Z,87.50
2022-08-30T22:42:38.935Z,87.80
2022-08-30T22:44:46.891Z,88.00
2022-08-30T22:46:48.892Z,88.30
2022-08-30T22:48:51.806Z,88.50
2022-08-30T22:50:53.731Z,88.80
2022-08-30T22:52:55.979Z,89.00
2022-08-30T22:54:57.996Z,89.30
2022-08-30T22:57:00.023Z,90.00
2022-08-30T22:59:06.065Z,89.90
2022-08-30T23:01:08.033Z,90.10
2022-08-30T23:03:09.976Z,90.30
2022-08-30T23:05:13.180Z,90.40
2022-08-30T23:07:15.123Z,90.60
2022-08-30T23:09:17.381Z,90.60
2022-08-30T23:11:20.346Z,90.70
2022-08-30T23:13:22.443Z,90.90
2022-08-30T23:15:25.457Z,91.00
2022-08-30T23:17:27.382Z,91.10
2022-08-30T23:19:33.669Z,91.20
2022-08-30T23:21:35.640Z,91.40
2022-08-30T23:23:56.375Z,91.40
2022-08-30T23:26:19.032Z,91.60
2022-08-30T23:28:40.233Z,91.70
2022-08-30T23:31:00.726Z,91.80
2022-08-30T23:33:21.521Z,91.90
2022-08-30T23:35:42.173Z,92.00
2022-08-30T23:38:07.117Z,92.10
2022-08-30T23:40:28.377Z,92.30
2022-08-30T23:42:49.235Z,92.30
2022-08-30T23:45:09.832Z,92.30
2022-08-30T23:47:30.463Z,92.40
2022-08-30T23:49:52.277Z,92.60
2022-08-30T23:52:12.785Z,92.80
2022-08-30T23:54:33.541Z,92.90
2022-08-30T23:56:54.131Z,93.10
2022-08-30T23:59:14.420Z,93.20
